Aérodrome :
LOGIN :

S'inscrire | Disclaimer

   EN    FR    IT 

 










Légende :    VFR   VFR Marginal   IFR   IFR Intensif   IFR Très Intensif
Visi : 
Plafond : 
>= 8 km
>= 3000ft
5 à 8 km
1000 à 3000 ft
1500m à 5 km
500 à 1000 ft
800 à 1500m
200 à 500 ft
< 800m
< 200 ft
Symboles :   Orages  Brouillard  Fortes neiges  Fortes précipitations  Vent > 20 kt
SIGMETs :   Divers  Orages  Givrage  Turbulence  Onde Orograph.  Cendres Volcan.







- Altitude de l'aérodrome : 200 ft


EBBL - Klein Brogel AB

DERNIER METAR :
  • 210609Z 29008KT 1600 BR OVC004 10/10 Q1013 YLO YLO

METARs EXPIRÉS :
  • 210555Z 29008KT 1300 BR OVC003 10/10 Q1013 AMB AMB BECMG YLO
  • 210525Z 28008KT 1100 -DZ OVC002 11/10 Q1012 AMB AMB BECMG YLO
  • 210513Z 29008KT 1300 -DZ OVC002 11/10 Q1012 AMB AMB BECMG YLO
  • 210455Z AUTO 29006KT 1400 BR OVC002/// 11/10 Q1012 AMB
  • 210425Z AUTO 30007KT 1600 BR OVC002/// 11/10 Q1012 AMB
  • 210355Z AUTO 29008KT 1500 BR OVC002/// 11/10 Q1012 AMB
  • 210325Z AUTO 28009KT 1900 BR OVC003/// 11/10 Q1012 YLO

TAF TAF EBBL
Valide du 20 à 19h jusqu'au 21 à 07h UTC


201541Z 2019/2107 29010KT 8000 BKN013 BKN210
TEMPO 2020/2107 27008KT 4500 BR BKN007
TEMPO 2023/2107 27012G22KT 3000 BR -DZ BKN005
Pas de NOTAMs connus pour ce terrain.



MET'MAP, la Météo Aéronautique d'un coup d'oeil ! - Copyright ORBIFLY Décembre 2007 - Disclaimer

ORBIFLY MET'MAP TEAM :

Programmation & Développement : Alexandra Zaïnal
Conception & Développement : Baudouin d'Aumeries
Co-Programmation & Développement : Marc-Olivier Méhu
Soutien technique & logistique : Manuel Goepfert

Contact : metmap@orbifly.com




SOURCES & CREDITS :

   NOAA